sensor_id;sensor_type;location;lat;lon;timestamp;temperature;humidity
30336;DHT22;17142;47.990;7.846;2022-12-08T00:00:04;0.30;99.90
30336;DHT22;17142;47.990;7.846;2022-12-08T00:02:31;0.20;99.90
30336;DHT22;17142;47.990;7.846;2022-12-08T00:04:56;0.10;99.90
30336;DHT22;17142;47.990;7.846;2022-12-08T00:07:43;0.00;99.90
30336;DHT22;17142;47.990;7.846;2022-12-08T00:10:29;-0.10;99.90
30336;DHT22;17142;47.990;7.846;2022-12-08T00:12:57;-0.20;99.90
30336;DHT22;17142;47.990;7.846;2022-12-08T00:15:23;-0.30;99.90
30336;DHT22;17142;47.990;7.846;2022-12-08T00:17:50;-0.30;99.90
30336;DHT22;17142;47.990;7.846;2022-12-08T00:20:16;-0.30;99.90
30336;DHT22;17142;47.990;7.846;2022-12-08T00:22:42;-0.30;99.90
30336;DHT22;17142;47.990;7.846;2022-12-08T00:25:07;-0.30;99.90
30336;DHT22;17142;47.990;7.846;2022-12-08T00:27:35;-0.40;99.90
30336;DHT22;17142;47.990;7.846;2022-12-08T00:30:04;-0.40;99.90
30336;DHT22;17142;47.990;7.846;2022-12-08T00:32:30;-0.40;99.90
30336;DHT22;17142;47.990;7.846;2022-12-08T00:34:58;-0.40;99.90
30336;DHT22;17142;47.990;7.846;2022-12-08T00:37:26;-0.40;99.90
30336;DHT22;17142;47.990;7.846;2022-12-08T00:39:53;-0.40;99.90
30336;DHT22;17142;47.990;7.846;2022-12-08T00:42:21;-0.50;99.90
30336;DHT22;17142;47.990;7.846;2022-12-08T00:44:47;-0.60;99.90
30336;DHT22;17142;47.990;7.846;2022-12-08T00:47:15;-0.70;99.90
30336;DHT22;17142;47.990;7.846;2022-12-08T00:49:41;-0.80;99.90
30336;DHT22;17142;47.990;7.846;2022-12-08T00:52:09;-0.90;99.90
30336;DHT22;17142;47.990;7.846;2022-12-08T00:54:35;-1.00;99.90
30336;DHT22;17142;47.990;7.846;2022-12-08T00:57:02;-1.10;99.90
30336;DHT22;17142;47.990;7.846;2022-12-08T00:59:28;-1.30;99.90
30336;DHT22;17142;47.990;7.846;2022-12-08T01:01:54;-1.40;99.90
30336;DHT22;17142;47.990;7.846;2022-12-08T01:04:19;-1.50;99.90
30336;DHT22;17142;47.990;7.846;2022-12-08T01:06:46;-1.70;99.90
30336;DHT22;17142;47.990;7.846;2022-12-08T01:09:13;-1.70;99.90
30336;DHT22;17142;47.990;7.846;2022-12-08T01:11:38;-1.80;99.90
30336;DHT22;17142;47.990;7.846;2022-12-08T01:14:04;-1.80;99.90
30336;DHT22;17142;47.990;7.846;2022-12-08T01:16:32;-1.90;99.90
30336;DHT22;17142;47.990;7.846;2022-12-08T01:19:01;-1.90;99.90
30336;DHT22;17142;47.990;7.846;2022-12-08T01:21:27;-2.00;99.90
30336;DHT22;17142;47.990;7.846;2022-12-08T01:23:54;-2.00;99.90
30336;DHT22;17142;47.990;7.846;2022-12-08T01:26:20;-2.00;99.90
30336;DHT22;17142;47.990;7.846;2022-12-08T01:28:50;-2.00;99.90
30336;DHT22;17142;47.990;7.846;2022-12-08T01:31:20;-2.00;99.90
30336;DHT22;17142;47.990;7.846;2022-12-08T01:33:49;-2.00;99.90
30336;DHT22;17142;47.990;7.846;2022-12-08T01:36:23;-2.00;99.90
30336;DHT22;17142;47.990;7.846;2022-12-08T01:38:49;-2.00;99.90
30336;DHT22;17142;47.990;7.846;2022-12-08T01:41:17;-2.00;99.90
30336;DHT22;17142;47.990;7.846;2022-12-08T01:46:39;-2.00;99.90
30336;DHT22;17142;47.990;7.846;2022-12-08T01:49:12;-2.10;99.90
30336;DHT22;17142;47.990;7.846;2022-12-08T01:51:56;-2.00;99.90
30336;DHT22;17142;47.990;7.846;2022-12-08T01:54:27;-2.00;99.90
30336;DHT22;17142;47.990;7.846;2022-12-08T01:57:03;-2.00;99.90
30336;DHT22;17142;47.990;7.846;2022-12-08T01:59:36;-2.10;99.90
30336;DHT22;17142;47.990;7.846;2022-12-08T02:02:07;-2.10;99.90
30336;DHT22;17142;47.990;7.846;2022-12-08T02:04:36;-2.10;99.90
30336;DHT22;17142;47.990;7.846;2022-12-08T02:07:02;-2.10;99.90
30336;DHT22;17142;47.990;7.846;2022-12-08T02:09:28;-2.20;99.90
30336;DHT22;17142;47.990;7.846;2022-12-08T02:11:57;-2.20;99.90
30336;DHT22;17142;47.990;7.846;2022-12-08T02:14:23;-2.20;99.90
30336;DHT22;17142;47.990;7.846;2022-12-08T02:22:26;-2.20;99.90
30336;DHT22;17142;47.990;7.846;2022-12-08T02:25:14;-2.20;99.90
30336;DHT22;17142;47.990;7.846;2022-12-08T02:27:58;-2.20;99.90
30336;DHT22;17142;47.990;7.846;2022-12-08T02:31:10;-2.20;99.90
30336;DHT22;17142;47.990;7.846;2022-12-08T02:39:49;-2.10;99.90
30336;DHT22;17142;47.990;7.846;2022-12-08T02:42:07;-2.10;99.90
30336;DHT22;17142;47.990;7.846;2022-12-08T02:44:44;-1.90;99.90
30336;DHT22;17142;47.990;7.846;2022-12-08T06:25:00;-1.50;99.90
30336;DHT22;17142;47.990;7.846;2022-12-08T06:27:28;-1.40;99.90
30336;DHT22;17142;47.990;7.846;2022-12-08T06:29:54;-1.30;99.90
30336;DHT22;17142;47.990;7.846;2022-12-08T06:32:20;-1.20;99.90
30336;DHT22;17142;47.990;7.846;2022-12-08T06:34:46;-1.20;99.90
30336;DHT22;17142;47.990;7.846;2022-12-08T06:37:14;-1.20;99.90
30336;DHT22;17142;47.990;7.846;2022-12-08T06:39:39;-1.10;99.90
30336;DHT22;17142;47.990;7.846;2022-12-08T06:42:05;-1.00;99.90
30336;DHT22;17142;47.990;7.846;2022-12-08T06:44:49;-1.10;99.90
30336;DHT22;17142;47.990;7.846;2022-12-08T06:47:15;-1.10;99.90
30336;DHT22;17142;47.990;7.846;2022-12-08T06:49:43;-1.10;99.90
30336;DHT22;17142;47.990;7.846;2022-12-08T06:52:09;-1.00;99.90
30336;DHT22;17142;47.990;7.846;2022-12-08T06:54:34;-1.00;99.90
30336;DHT22;17142;47.990;7.846;2022-12-08T06:57:00;-1.00;99.90
30336;DHT22;17142;47.990;7.846;2022-12-08T06:59:28;-1.10;99.90
30336;DHT22;17142;47.990;7.846;2022-12-08T07:01:53;-1.20;99.90
30336;DHT22;17142;47.990;7.846;2022-12-08T07:04:19;-1.20;99.90
30336;DHT22;17142;47.990;7.846;2022-12-08T07:06:47;-1.30;99.90
30336;DHT22;17142;47.990;7.846;2022-12-08T07:09:12;-1.30;99.90
30336;DHT22;17142;47.990;7.846;2022-12-08T07:11:38;-1.30;99.90
30336;DHT22;17142;47.990;7.846;2022-12-08T07:14:06;-1.40;99.90
30336;DHT22;17142;47.990;7.846;2022-12-08T07:16:32;-1.30;99.90
30336;DHT22;17142;47.990;7.846;2022-12-08T07:18:58;-1.30;99.90
30336;DHT22;17142;47.990;7.846;2022-12-08T07:21:24;-1.40;99.90
30336;DHT22;17142;47.990;7.846;2022-12-08T07:23:52;-1.30;99.90
30336;DHT22;17142;47.990;7.846;2022-12-08T07:26:20;-1.30;99.90
30336;DHT22;17142;47.990;7.846;2022-12-08T07:28:48;-1.20;99.90
30336;DHT22;17142;47.990;7.846;2022-12-08T07:31:20;-1.00;99.90
30336;DHT22;17142;47.990;7.846;2022-12-08T07:33:48;-0.90;99.90
30336;DHT22;17142;47.990;7.846;2022-12-08T07:36:15;-0.80;99.90
30336;DHT22;17142;47.990;7.846;2022-12-08T07:38:42;-0.80;99.90
30336;DHT22;17142;47.990;7.846;2022-12-08T07:41:16;-0.70;99.90
30336;DHT22;17142;47.990;7.846;2022-12-08T07:43:44;-0.70;99.90
30336;DHT22;17142;47.990;7.846;2022-12-08T07:46:17;-0.70;99.90
30336;DHT22;17142;47.990;7.846;2022-12-08T07:48:43;-0.70;99.90
30336;DHT22;17142;47.990;7.846;2022-12-08T07:51:11;-0.60;99.90
30336;DHT22;17142;47.990;7.846;2022-12-08T07:53:41;-0.60;99.90
30336;DHT22;17142;47.990;7.846;2022-12-08T07:56:11;-0.60;99.90
30336;DHT22;17142;47.990;7.846;2022-12-08T07:58:38;-0.60;99.90
30336;DHT22;17142;47.990;7.846;2022-12-08T08:01:05;-0.50;99.90
30336;DHT22;17142;47.990;7.846;2022-12-08T08:03:31;-0.50;99.90
30336;DHT22;17142;47.990;7.846;2022-12-08T08:06:04;-0.40;99.90
30336;DHT22;17142;47.990;7.846;2022-12-08T08:08:30;-0.40;99.90
30336;DHT22;17142;47.990;7.846;2022-12-08T08:10:56;-0.30;99.90
30336;DHT22;17142;47.990;7.846;2022-12-08T08:13:22;-0.30;99.90
30336;DHT22;17142;47.990;7.846;2022-12-08T08:15:47;-0.30;99.90
30336;DHT22;17142;47.990;7.846;2022-12-08T08:18:13;-0.30;99.90
30336;DHT22;17142;47.990;7.846;2022-12-08T08:20:39;-0.30;99.90
30336;DHT22;17142;47.990;7.846;2022-12-08T08:23:07;-0.30;99.90
30336;DHT22;17142;47.990;7.846;2022-12-08T08:25:33;-0.30;99.90
30336;DHT22;17142;47.990;7.846;2022-12-08T08:27:58;-0.20;99.90
30336;DHT22;17142;47.990;7.846;2022-12-08T08:30:24;-0.20;99.90
30336;DHT22;17142;47.990;7.846;2022-12-08T08:32:52;-0.10;99.90
30336;DHT22;17142;47.990;7.846;2022-12-08T08:35:18;0.00;99.90
30336;DHT22;17142;47.990;7.846;2022-12-08T08:37:44;0.20;99.90
30336;DHT22;17142;47.990;7.846;2022-12-08T08:40:09;0.40;99.90
30336;DHT22;17142;47.990;7.846;2022-12-08T08:42:35;0.50;99.90
30336;DHT22;17142;47.990;7.846;2022-12-08T08:45:01;0.50;99.90
30336;DHT22;17142;47.990;7.846;2022-12-08T08:47:29;0.50;99.90
30336;DHT22;17142;47.990;7.846;2022-12-08T08:49:59;0.60;99.90
30336;DHT22;17142;47.990;7.846;2022-12-08T08:52:24;0.60;99.90
30336;DHT22;17142;47.990;7.846;2022-12-08T08:54:50;0.50;99.90
30336;DHT22;17142;47.990;7.846;2022-12-08T08:57:15;0.50;99.90
30336;DHT22;17142;47.990;7.846;2022-12-08T08:59:43;0.40;99.90
30336;DHT22;17142;47.990;7.846;2022-12-08T09:02:16;0.40;99.90
30336;DHT22;17142;47.990;7.846;2022-12-08T09:04:45;0.40;99.90
30336;DHT22;17142;47.990;7.846;2022-12-08T09:07:11;0.40;99.90
30336;DHT22;17142;47.990;7.846;2022-12-08T09:09:40;0.40;99.90
30336;DHT22;17142;47.990;7.846;2022-12-08T09:12:06;0.40;99.90
30336;DHT22;17142;47.990;7.846;2022-12-08T09:14:34;0.50;99.90
30336;DHT22;17142;47.990;7.846;2022-12-08T09:16:59;0.50;99.90
30336;DHT22;17142;47.990;7.846;2022-12-08T09:19:25;0.60;99.90
30336;DHT22;17142;47.990;7.846;2022-12-08T09:21:51;0.70;99.90
30336;DHT22;17142;47.990;7.846;2022-12-08T09:24:21;0.80;99.90
30336;DHT22;17142;47.990;7.846;2022-12-08T09:26:47;0.90;99.90
30336;DHT22;17142;47.990;7.846;2022-12-08T09:29:15;0.90;99.90
30336;DHT22;17142;47.990;7.846;2022-12-08T09:31:44;1.00;99.90
30336;DHT22;17142;47.990;7.846;2022-12-08T09:34:10;1.10;99.90
30336;DHT22;17142;47.990;7.846;2022-12-08T09:36:39;1.20;99.90
30336;DHT22;17142;47.990;7.846;2022-12-08T09:39:05;1.20;99.90
30336;DHT22;17142;47.990;7.846;2022-12-08T09:41:32;1.30;99.90
30336;DHT22;17142;47.990;7.846;2022-12-08T09:46:51;1.50;99.90
30336;DHT22;17142;47.990;7.846;2022-12-08T09:49:32;1.50;99.90
30336;DHT22;17142;47.990;7.846;2022-12-08T09:52:02;1.60;99.90
30336;DHT22;17142;47.990;7.846;2022-12-08T09:54:32;1.70;99.90
30336;DHT22;17142;47.990;7.846;2022-12-08T09:57:02;1.70;99.90
30336;DHT22;17142;47.990;7.846;2022-12-08T09:59:32;1.60;99.90
30336;DHT22;17142;47.990;7.846;2022-12-08T10:01:59;1.60;99.90
30336;DHT22;17142;47.990;7.846;2022-12-08T10:04:29;1.50;99.90
30336;DHT22;17142;47.990;7.846;2022-12-08T10:07:19;1.50;99.90
30336;DHT22;17142;47.990;7.846;2022-12-08T10:10:20;1.40;99.90
30336;DHT22;17142;47.990;7.846;2022-12-08T10:15:44;1.20;99.90
30336;DHT22;17142;47.990;7.846;2022-12-08T10:18:18;1.20;99.90
30336;DHT22;17142;47.990;7.846;2022-12-08T10:20:47;1.10;99.90
30336;DHT22;17142;47.990;7.846;2022-12-08T10:26:02;1.00;99.90
30336;DHT22;17142;47.990;7.846;2022-12-08T10:28:28;1.00;99.90
30336;DHT22;17142;47.990;7.846;2022-12-08T10:30:53;0.90;99.90
30336;DHT22;17142;47.990;7.846;2022-12-08T10:33:20;0.90;99.90
30336;DHT22;17142;47.990;7.846;2022-12-08T10:38:21;0.90;99.90
30336;DHT22;17142;47.990;7.846;2022-12-08T10:40:53;0.90;99.90
30336;DHT22;17142;47.990;7.846;2022-12-08T10:43:26;1.60;99.90
30336;DHT22;17142;47.990;7.846;2022-12-08T10:45:54;2.20;99.90
30336;DHT22;17142;47.990;7.846;2022-12-08T10:48:23;2.10;99.90
30336;DHT22;17142;47.990;7.846;2022-12-08T10:50:57;2.00;99.90
30336;DHT22;17142;47.990;7.846;2022-12-08T10:58:35;1.60;99.90
30336;DHT22;17142;47.990;7.846;2022-12-08T11:01:21;1.50;99.90
30336;DHT22;17142;47.990;7.846;2022-12-08T11:04:02;1.30;99.90
30336;DHT22;17142;47.990;7.846;2022-12-08T11:11:59;1.00;99.90
30336;DHT22;17142;47.990;7.846;2022-12-08T11:14:35;0.90;99.90
30336;DHT22;17142;47.990;7.846;2022-12-08T11:17:07;0.90;99.90
30336;DHT22;17142;47.990;7.846;2022-12-08T11:19:40;0.80;99.90
30336;DHT22;17142;47.990;7.846;2022-12-08T11:22:30;0.70;99.90
30336;DHT22;17142;47.990;7.846;2022-12-08T11:27:43;0.70;99.90
30336;DHT22;17142;47.990;7.846;2022-12-08T11:30:18;0.90;99.90
30336;DHT22;17142;47.990;7.846;2022-12-08T11:32:48;1.10;99.90
30336;DHT22;17142;47.990;7.846;2022-12-08T11:35:28;1.30;99.90
30336;DHT22;17142;47.990;7.846;2022-12-08T11:38:00;1.40;99.90
30336;DHT22;17142;47.990;7.846;2022-12-08T11:40:31;1.40;99.90
30336;DHT22;17142;47.990;7.846;2022-12-08T11:45:31;1.10;99.90
30336;DHT22;17142;47.990;7.846;2022-12-08T11:50:38;0.90;99.90
30336;DHT22;17142;47.990;7.846;2022-12-08T11:55:57;0.80;99.90
30336;DHT22;17142;47.990;7.846;2022-12-08T11:58:35;0.80;99.90
30336;DHT22;17142;47.990;7.846;2022-12-08T12:01:03;0.80;99.90
30336;DHT22;17142;47.990;7.846;2022-12-08T12:03:43;0.80;99.90
30336;DHT22;17142;47.990;7.846;2022-12-08T12:12:31;0.90;99.90
30336;DHT22;17142;47.990;7.846;2022-12-08T12:22:49;0.90;99.90
30336;DHT22;17142;47.990;7.846;2022-12-08T12:25:21;1.00;99.90
30336;DHT22;17142;47.990;7.846;2022-12-08T12:27:55;1.10;99.90
30336;DHT22;17142;47.990;7.846;2022-12-08T12:30:26;1.20;99.90
30336;DHT22;17142;47.990;7.846;2022-12-08T12:32:54;1.20;99.90
30336;DHT22;17142;47.990;7.846;2022-12-08T12:35:40;1.10;99.90
30336;DHT22;17142;47.990;7.846;2022-12-08T12:44:38;1.10;99.90
30336;DHT22;17142;47.990;7.846;2022-12-08T12:47:10;1.10;99.90
30336;DHT22;17142;47.990;7.846;2022-12-08T12:57:36;1.30;99.90
30336;DHT22;17142;47.990;7.846;2022-12-08T13:05:27;1.30;99.90
30336;DHT22;17142;47.990;7.846;2022-12-08T13:08:05;1.30;99.90
30336;DHT22;17142;47.990;7.846;2022-12-08T13:15:59;1.20;99.90
30336;DHT22;17142;47.990;7.846;2022-12-08T13:23:41;1.50;99.90
30336;DHT22;17142;47.990;7.846;2022-12-08T13:26:44;1.60;99.90
30336;DHT22;17142;47.990;7.846;2022-12-08T13:31:54;2.00;99.90
30336;DHT22;17142;47.990;7.846;2022-12-08T13:34:51;2.10;99.90
30336;DHT22;17142;47.990;7.846;2022-12-08T13:37:33;2.30;99.90
30336;DHT22;17142;47.990;7.846;2022-12-08T13:40:08;2.40;99.90
30336;DHT22;17142;47.990;7.846;2022-12-08T13:42:41;2.50;99.90
30336;DHT22;17142;47.990;7.846;2022-12-08T13:53:14;2.70;99.90
30336;DHT22;17142;47.990;7.846;2022-12-08T13:55:46;2.70;99.90
30336;DHT22;17142;47.990;7.846;2022-12-08T13:58:25;2.60;99.90
30336;DHT22;17142;47.990;7.846;2022-12-08T14:03:22;2.60;99.90
30336;DHT22;17142;47.990;7.846;2022-12-08T14:05:48;2.60;99.90
30336;DHT22;17142;47.990;7.846;2022-12-08T14:08:28;2.50;99.90
30336;DHT22;17142;47.990;7.846;2022-12-08T14:11:00;2.50;99.90
30336;DHT22;17142;47.990;7.846;2022-12-08T14:13:29;2.50;99.90
30336;DHT22;17142;47.990;7.846;2022-12-08T14:15:58;2.40;99.90
30336;DHT22;17142;47.990;7.846;2022-12-08T14:18:29;2.40;99.90
30336;DHT22;17142;47.990;7.846;2022-12-08T14:21:08;2.30;99.90
30336;DHT22;17142;47.990;7.846;2022-12-08T14:23:42;2.30;99.90
30336;DHT22;17142;47.990;7.846;2022-12-08T14:26:10;2.20;99.90
30336;DHT22;17142;47.990;7.846;2022-12-08T14:28:36;2.10;99.90
30336;DHT22;17142;47.990;7.846;2022-12-08T14:31:06;2.10;99.90
30336;DHT22;17142;47.990;7.846;2022-12-08T14:33:32;2.00;99.90
30336;DHT22;17142;47.990;7.846;2022-12-08T14:35:58;2.00;99.90
30336;DHT22;17142;47.990;7.846;2022-12-08T14:38:26;2.00;99.90
30336;DHT22;17142;47.990;7.846;2022-12-08T14:41:01;2.00;99.90
30336;DHT22;17142;47.990;7.846;2022-12-08T14:43:28;2.00;99.90
30336;DHT22;17142;47.990;7.846;2022-12-08T14:46:18;1.90;99.90
30336;DHT22;17142;47.990;7.846;2022-12-08T14:48:47;1.90;99.90
30336;DHT22;17142;47.990;7.846;2022-12-08T14:53:56;2.00;99.90
30336;DHT22;17142;47.990;7.846;2022-12-08T15:01:44;2.10;99.90
30336;DHT22;17142;47.990;7.846;2022-12-08T15:04:14;2.10;99.90
30336;DHT22;17142;47.990;7.846;2022-12-08T15:09:41;2.00;99.90
30336;DHT22;17142;47.990;7.846;2022-12-08T15:14:57;1.90;99.90
30336;DHT22;17142;47.990;7.846;2022-12-08T15:20:38;1.80;99.90
30336;DHT22;17142;47.990;7.846;2022-12-08T15:23:20;1.70;99.90
30336;DHT22;17142;47.990;7.846;2022-12-08T15:25:49;1.60;99.90
30336;DHT22;17142;47.990;7.846;2022-12-08T15:28:17;1.50;99.90
30336;DHT22;17142;47.990;7.846;2022-12-08T15:30:42;1.30;99.90
30336;DHT22;17142;47.990;7.846;2022-12-08T15:33:08;1.40;99.90
30336;DHT22;17142;47.990;7.846;2022-12-08T15:35:38;2.00;99.90
30336;DHT22;17142;47.990;7.846;2022-12-08T15:38:05;1.90;99.90
30336;DHT22;17142;47.990;7.846;2022-12-08T15:40:31;1.60;99.90
30336;DHT22;17142;47.990;7.846;2022-12-08T15:42:57;1.30;99.90
30336;DHT22;17142;47.990;7.846;2022-12-08T15:45:27;0.90;99.90
30336;DHT22;17142;47.990;7.846;2022-12-08T15:47:55;0.60;99.90
30336;DHT22;17142;47.990;7.846;2022-12-08T15:50:24;0.40;99.90
30336;DHT22;17142;47.990;7.846;2022-12-08T15:52:50;0.20;99.90
30336;DHT22;17142;47.990;7.846;2022-12-08T15:55:18;0.00;99.90
30336;DHT22;17142;47.990;7.846;2022-12-08T15:57:49;-0.10;99.90
30336;DHT22;17142;47.990;7.846;2022-12-08T16:02:49;-0.30;99.90
30336;DHT22;17142;47.990;7.846;2022-12-08T16:05:15;-0.40;99.90
30336;DHT22;17142;47.990;7.846;2022-12-08T16:07:41;-0.50;99.90
30336;DHT22;17142;47.990;7.846;2022-12-08T16:10:13;-0.60;99.90
30336;DHT22;17142;47.990;7.846;2022-12-08T16:12:42;-0.70;99.90
30336;DHT22;17142;47.990;7.846;2022-12-08T16:15:26;-0.80;99.90
30336;DHT22;17142;47.990;7.846;2022-12-08T16:17:55;-0.90;99.90
30336;DHT22;17142;47.990;7.846;2022-12-08T16:20:21;-1.00;99.90
30336;DHT22;17142;47.990;7.846;2022-12-08T16:22:47;-1.10;99.90
30336;DHT22;17142;47.990;7.846;2022-12-08T16:25:13;-1.20;99.90
30336;DHT22;17142;47.990;7.846;2022-12-08T16:27:39;-1.30;99.90
30336;DHT22;17142;47.990;7.846;2022-12-08T16:30:13;-1.30;99.90
30336;DHT22;17142;47.990;7.846;2022-12-08T16:32:41;-1.30;99.90
30336;DHT22;17142;47.990;7.846;2022-12-08T16:35:07;-1.30;99.90
30336;DHT22;17142;47.990;7.846;2022-12-08T16:37:36;-1.40;99.90
30336;DHT22;17142;47.990;7.846;2022-12-08T16:40:05;-1.40;99.90
30336;DHT22;17142;47.990;7.846;2022-12-08T16:42:32;-1.40;99.90
30336;DHT22;17142;47.990;7.846;2022-12-08T16:45:17;-1.40;99.90
30336;DHT22;17142;47.990;7.846;2022-12-08T16:47:46;-1.40;99.90
30336;DHT22;17142;47.990;7.846;2022-12-08T16:52:48;-1.50;99.90
30336;DHT22;17142;47.990;7.846;2022-12-08T16:55:18;-1.50;99.90
30336;DHT22;17142;47.990;7.846;2022-12-08T16:57:48;-1.50;99.90
30336;DHT22;17142;47.990;7.846;2022-12-08T17:00:25;-1.60;99.90
30336;DHT22;17142;47.990;7.846;2022-12-08T17:02:51;-1.60;99.90
30336;DHT22;17142;47.990;7.846;2022-12-08T17:05:22;-1.60;99.90
30336;DHT22;17142;47.990;7.846;2022-12-08T17:07:49;-1.50;99.90
30336;DHT22;17142;47.990;7.846;2022-12-08T17:10:19;-1.50;99.90
30336;DHT22;17142;47.990;7.846;2022-12-08T17:12:50;-1.50;99.90
30336;DHT22;17142;47.990;7.846;2022-12-08T17:15:18;-1.50;99.90
30336;DHT22;17142;47.990;7.846;2022-12-08T17:17:44;-1.50;99.90
30336;DHT22;17142;47.990;7.846;2022-12-08T17:20:15;-1.50;99.90
30336;DHT22;17142;47.990;7.846;2022-12-08T17:22:44;-1.40;99.90
30336;DHT22;17142;47.990;7.846;2022-12-08T17:25:10;-1.40;99.90
30336;DHT22;17142;47.990;7.846;2022-12-08T17:27:39;-1.30;99.90
30336;DHT22;17142;47.990;7.846;2022-12-08T17:30:11;-1.30;99.90
30336;DHT22;17142;47.990;7.846;2022-12-08T17:32:40;-1.30;99.90
30336;DHT22;17142;47.990;7.846;2022-12-08T17:35:06;-1.20;99.90
30336;DHT22;17142;47.990;7.846;2022-12-08T17:37:32;-1.20;99.90
30336;DHT22;17142;47.990;7.846;2022-12-08T17:39:57;-1.30;99.90
30336;DHT22;17142;47.990;7.846;2022-12-08T17:42:23;-1.30;99.90
30336;DHT22;17142;47.990;7.846;2022-12-08T17:44:54;-1.30;99.90
30336;DHT22;17142;47.990;7.846;2022-12-08T17:47:20;-1.30;99.90
30336;DHT22;17142;47.990;7.846;2022-12-08T17:49:45;-1.30;99.90
30336;DHT22;17142;47.990;7.846;2022-12-08T17:52:11;-1.30;99.90
30336;DHT22;17142;47.990;7.846;2022-12-08T17:54:37;-1.30;99.90
30336;DHT22;17142;47.990;7.846;2022-12-08T17:57:03;-1.30;99.90
30336;DHT22;17142;47.990;7.846;2022-12-08T17:59:33;-1.30;99.90
30336;DHT22;17142;47.990;7.846;2022-12-08T18:01:59;-1.30;99.90
30336;DHT22;17142;47.990;7.846;2022-12-08T18:04:25;-1.40;99.90
30336;DHT22;17142;47.990;7.846;2022-12-08T18:06:51;-1.40;99.90
30336;DHT22;17142;47.990;7.846;2022-12-08T18:09:19;-1.50;99.90
30336;DHT22;17142;47.990;7.846;2022-12-08T18:11:45;-1.60;99.90
30336;DHT22;17142;47.990;7.846;2022-12-08T18:14:12;-1.70;99.90
30336;DHT22;17142;47.990;7.846;2022-12-08T18:16:43;-1.70;99.90
30336;DHT22;17142;47.990;7.846;2022-12-08T18:19:10;-1.80;99.90
30336;DHT22;17142;47.990;7.846;2022-12-08T18:21:38;-1.70;99.90
30336;DHT22;17142;47.990;7.846;2022-12-08T18:24:04;-1.70;99.90
30336;DHT22;17142;47.990;7.846;2022-12-08T18:26:30;-1.60;99.90
30336;DHT22;17142;47.990;7.846;2022-12-08T18:28:56;-1.60;99.90
30336;DHT22;17142;47.990;7.846;2022-12-08T18:31:25;-1.50;99.90
30336;DHT22;17142;47.990;7.846;2022-12-08T18:33:51;-1.50;99.90
30336;DHT22;17142;47.990;7.846;2022-12-08T18:36:21;-1.30;99.90
30336;DHT22;17142;47.990;7.846;2022-12-08T18:38:47;-1.30;99.90
30336;DHT22;17142;47.990;7.846;2022-12-08T18:41:16;-1.30;99.90
30336;DHT22;17142;47.990;7.846;2022-12-08T18:43:43;-1.20;99.90
30336;DHT22;17142;47.990;7.846;2022-12-08T18:46:10;-1.30;99.90
30336;DHT22;17142;47.990;7.846;2022-12-08T18:48:38;-1.40;99.90
30336;DHT22;17142;47.990;7.846;2022-12-08T18:51:11;-1.40;99.90
30336;DHT22;17142;47.990;7.846;2022-12-08T18:53:38;-1.50;99.90
30336;DHT22;17142;47.990;7.846;2022-12-08T18:56:04;-1.50;99.90
30336;DHT22;17142;47.990;7.846;2022-12-08T18:58:30;-1.50;99.90
30336;DHT22;17142;47.990;7.846;2022-12-08T19:00:56;-1.50;99.90
30336;DHT22;17142;47.990;7.846;2022-12-08T19:03:22;-1.50;99.90
30336;DHT22;17142;47.990;7.846;2022-12-08T19:06:03;-1.60;99.90
30336;DHT22;17142;47.990;7.846;2022-12-08T19:08:29;-1.60;99.90
30336;DHT22;17142;47.990;7.846;2022-12-08T19:10:55;-1.60;99.90
30336;DHT22;17142;47.990;7.846;2022-12-08T19:13:23;-1.60;99.90
30336;DHT22;17142;47.990;7.846;2022-12-08T19:15:48;-1.60;99.90
30336;DHT22;17142;47.990;7.846;2022-12-08T19:18:14;-1.60;99.90
30336;DHT22;17142;47.990;7.846;2022-12-08T19:20:42;-1.60;99.90
30336;DHT22;17142;47.990;7.846;2022-12-08T19:23:08;-1.60;99.90
30336;DHT22;17142;47.990;7.846;2022-12-08T19:25:36;-1.60;99.90
30336;DHT22;17142;47.990;7.846;2022-12-08T19:28:01;-1.50;99.90
30336;DHT22;17142;47.990;7.846;2022-12-08T19:30:27;-1.50;99.90
30336;DHT22;17142;47.990;7.846;2022-12-08T19:32:53;-1.60;99.90
30336;DHT22;17142;47.990;7.846;2022-12-08T19:35:21;-1.60;99.90
30336;DHT22;17142;47.990;7.846;2022-12-08T19:37:49;-1.60;99.90
30336;DHT22;17142;47.990;7.846;2022-12-08T19:40:15;-1.50;99.90
30336;DHT22;17142;47.990;7.846;2022-12-08T19:42:59;-1.50;99.90
30336;DHT22;17142;47.990;7.846;2022-12-08T19:45:43;-1.50;99.90
30336;DHT22;17142;47.990;7.846;2022-12-08T19:48:09;-1.30;99.90
30336;DHT22;17142;47.990;7.846;2022-12-08T19:50:34;-1.30;99.90
30336;DHT22;17142;47.990;7.846;2022-12-08T19:53:10;-1.30;99.90
30336;DHT22;17142;47.990;7.846;2022-12-08T19:55:42;-1.40;99.90
30336;DHT22;17142;47.990;7.846;2022-12-08T19:58:09;-1.40;99.90
30336;DHT22;17142;47.990;7.846;2022-12-08T20:00:36;-1.40;99.90
30336;DHT22;17142;47.990;7.846;2022-12-08T20:03:04;-1.50;99.90
30336;DHT22;17142;47.990;7.846;2022-12-08T20:05:34;-1.50;99.90
30336;DHT22;17142;47.990;7.846;2022-12-08T20:08:02;-1.50;99.90
30336;DHT22;17142;47.990;7.846;2022-12-08T20:10:35;-1.50;99.90
30336;DHT22;17142;47.990;7.846;2022-12-08T20:13:01;-1.50;99.90
30336;DHT22;17142;47.990;7.846;2022-12-08T20:15:45;-1.50;99.90
30336;DHT22;17142;47.990;7.846;2022-12-08T20:18:12;-1.50;99.90
30336;DHT22;17142;47.990;7.846;2022-12-08T20:20:39;-1.60;99.90
30336;DHT22;17142;47.990;7.846;2022-12-08T20:23:05;-1.70;99.90
30336;DHT22;17142;47.990;7.846;2022-12-08T20:25:31;-1.90;99.90
30336;DHT22;17142;47.990;7.846;2022-12-08T20:27:57;-2.00;99.90
30336;DHT22;17142;47.990;7.846;2022-12-08T20:30:25;-2.00;99.90
30336;DHT22;17142;47.990;7.846;2022-12-08T20:32:50;-1.90;99.90
30336;DHT22;17142;47.990;7.846;2022-12-08T20:35:16;-1.90;99.90
30336;DHT22;17142;47.990;7.846;2022-12-08T20:37:41;-1.90;99.90
30336;DHT22;17142;47.990;7.846;2022-12-08T20:40:07;-1.90;99.90
30336;DHT22;17142;47.990;7.846;2022-12-08T20:42:33;-1.90;99.90
30336;DHT22;17142;47.990;7.846;2022-12-08T20:44:59;-2.00;99.90
30336;DHT22;17142;47.990;7.846;2022-12-08T20:47:24;-1.90;99.90
30336;DHT22;17142;47.990;7.846;2022-12-08T20:49:50;-2.00;99.90
30336;DHT22;17142;47.990;7.846;2022-12-08T20:52:16;-2.10;99.90
30336;DHT22;17142;47.990;7.846;2022-12-08T20:54:41;-2.20;99.90
30336;DHT22;17142;47.990;7.846;2022-12-08T20:57:07;-2.20;99.90
30336;DHT22;17142;47.990;7.846;2022-12-08T20:59:32;-2.20;99.90
30336;DHT22;17142;47.990;7.846;2022-12-08T21:01:58;-2.20;99.90
30336;DHT22;17142;47.990;7.846;2022-12-08T21:04:29;-2.10;99.90
30336;DHT22;17142;47.990;7.846;2022-12-08T21:06:55;-2.10;99.90
30336;DHT22;17142;47.990;7.846;2022-12-08T21:09:23;-2.00;99.90
30336;DHT22;17142;47.990;7.846;2022-12-08T21:11:51;-1.90;99.90
30336;DHT22;17142;47.990;7.846;2022-12-08T21:14:16;-1.90;99.90
30336;DHT22;17142;47.990;7.846;2022-12-08T21:16:42;-1.80;99.90
30336;DHT22;17142;47.990;7.846;2022-12-08T21:19:08;-1.70;99.90
30336;DHT22;17142;47.990;7.846;2022-12-08T21:21:38;-1.70;99.90
30336;DHT22;17142;47.990;7.846;2022-12-08T21:24:04;-1.70;99.90
30336;DHT22;17142;47.990;7.846;2022-12-08T21:26:29;-1.70;99.90
30336;DHT22;17142;47.990;7.846;2022-12-08T21:28:56;-1.70;99.90
30336;DHT22;17142;47.990;7.846;2022-12-08T21:31:23;-1.70;99.90
30336;DHT22;17142;47.990;7.846;2022-12-08T21:33:51;-1.60;99.90